sensor_id;sensor_type;location;lat;lon;timestamp;pressure;altitude;pressure_sealevel;temperature;humidity
85641;BME280;76065;47.182;27.506;2024-03-06T00:01:44;100524.84;;;1.50;90.97
85641;BME280;76065;47.182;27.506;2024-03-06T00:04:09;100518.97;;;1.48;90.82
85641;BME280;76065;47.182;27.506;2024-03-06T00:06:35;100527.50;;;1.50;91.10
85641;BME280;76065;47.182;27.506;2024-03-06T00:09:02;100531.63;;;1.46;91.30
85641;BME280;76065;47.182;27.506;2024-03-06T00:11:30;100531.97;;;1.50;91.27
85641;BME280;76065;47.182;27.506;2024-03-06T00:13:55;100522.53;;;1.54;90.25
85641;BME280;76065;47.182;27.506;2024-03-06T00:16:21;100533.06;;;1.60;90.48
85641;BME280;76065;47.182;27.506;2024-03-06T00:18:47;100516.41;;;1.53;90.12
85641;BME280;76065;47.182;27.506;2024-03-06T00:21:12;100518.22;;;1.41;91.42
85641;BME280;76065;47.182;27.506;2024-03-06T00:23:38;100527.44;;;1.38;91.66
85641;BME280;76065;47.182;27.506;2024-03-06T00:26:04;100518.34;;;1.46;90.59
85641;BME280;76065;47.182;27.506;2024-03-06T00:28:30;100533.50;;;1.57;90.75
85641;BME280;76065;47.182;27.506;2024-03-06T00:30:55;100534.78;;;1.55;91.00
85641;BME280;76065;47.182;27.506;2024-03-06T00:33:22;100527.66;;;1.67;90.02
85641;BME280;76065;47.182;27.506;2024-03-06T00:35:48;100522.00;;;1.63;89.87
85641;BME280;76065;47.182;27.506;2024-03-06T00:38:14;100528.53;;;1.61;90.48
85641;BME280;76065;47.182;27.506;2024-03-06T00:40:39;100526.13;;;1.59;91.01
85641;BME280;76065;47.182;27.506;2024-03-06T00:43:05;100519.88;;;1.54;90.69
85641;BME280;76065;47.182;27.506;2024-03-06T00:45:31;100515.25;;;1.49;90.65
85641;BME280;76065;47.182;27.506;2024-03-06T00:47:57;100523.22;;;1.49;91.03
85641;BME280;76065;47.182;27.506;2024-03-06T00:50:23;100516.97;;;1.44;91.19
85641;BME280;76065;47.182;27.506;2024-03-06T00:52:49;100521.16;;;1.51;90.45
85641;BME280;76065;47.182;27.506;2024-03-06T00:55:15;100525.22;;;1.65;88.36
85641;BME280;76065;47.182;27.506;2024-03-06T00:57:40;100524.84;;;1.50;89.88
85641;BME280;76065;47.182;27.506;2024-03-06T01:00:06;100537.28;;;1.50;90.15
85641;BME280;76065;47.182;27.506;2024-03-06T01:02:38;100518.22;;;1.41;90.27
85641;BME280;76065;47.182;27.506;2024-03-06T01:05:04;100524.06;;;1.61;89.55
85641;BME280;76065;47.182;27.506;2024-03-06T01:07:30;100526.84;;;1.66;89.14
85641;BME280;76065;47.182;27.506;2024-03-06T01:09:56;100537.56;;;1.60;89.77
85641;BME280;76065;47.182;27.506;2024-03-06T01:12:26;100515.69;;;1.46;89.79
85641;BME280;76065;47.182;27.506;2024-03-06T01:14:52;100538.38;;;1.60;89.82
85641;BME280;76065;47.182;27.506;2024-03-06T01:17:17;100536.03;;;1.52;90.56
85641;BME280;76065;47.182;27.506;2024-03-06T01:19:43;100532.22;;;1.48;90.10
85641;BME280;76065;47.182;27.506;2024-03-06T01:22:11;100528.31;;;1.51;89.37
85641;BME280;76065;47.182;27.506;2024-03-06T01:24:38;100529.31;;;1.50;89.81
85641;BME280;76065;47.182;27.506;2024-03-06T01:27:04;100539.47;;;1.53;89.63
85641;BME280;76065;47.182;27.506;2024-03-06T01:29:29;100538.38;;;1.60;89.39
85641;BME280;76065;47.182;27.506;2024-03-06T01:31:55;100534.50;;;1.45;90.09
85641;BME280;76065;47.182;27.506;2024-03-06T01:34:20;100545.75;;;1.58;89.40
85641;BME280;76065;47.182;27.506;2024-03-06T01:36:47;100542.53;;;1.56;89.64
85641;BME280;76065;47.182;27.506;2024-03-06T01:39:13;100541.38;;;1.64;89.42
85641;BME280;76065;47.182;27.506;2024-03-06T01:41:47;100533.59;;;1.51;90.05
85641;BME280;76065;47.182;27.506;2024-03-06T01:44:17;100534.13;;;1.41;90.55
85641;BME280;76065;47.182;27.506;2024-03-06T01:46:44;100534.81;;;1.36;90.29
85641;BME280;76065;47.182;27.506;2024-03-06T01:49:13;100534.94;;;1.41;90.20
85641;BME280;76065;47.182;27.506;2024-03-06T01:51:48;100536.22;;;1.39;90.64
85641;BME280;76065;47.182;27.506;2024-03-06T01:54:15;100543.41;;;1.50;90.82
85641;BME280;76065;47.182;27.506;2024-03-06T01:56:44;100527.22;;;1.40;90.38
85641;BME280;76065;47.182;27.506;2024-03-06T01:59:18;100532.59;;;1.33;90.76
85641;BME280;76065;47.182;27.506;2024-03-06T02:01:44;100532.53;;;1.40;90.65
85641;BME280;76065;47.182;27.506;2024-03-06T02:04:12;100541.06;;;1.42;90.93
85641;BME280;76065;47.182;27.506;2024-03-06T02:06:41;100550.41;;;1.45;90.77
85641;BME280;76065;47.182;27.506;2024-03-06T02:09:07;100545.56;;;1.41;91.23
85641;BME280;76065;47.182;27.506;2024-03-06T02:11:36;100551.00;;;1.47;91.49
85641;BME280;76065;47.182;27.506;2024-03-06T02:14:01;100532.56;;;1.52;90.52
85641;BME280;76065;47.182;27.506;2024-03-06T02:16:28;100552.22;;;1.62;90.26
85641;BME280;76065;47.182;27.506;2024-03-06T02:18:54;100539.97;;;1.61;90.30
85641;BME280;76065;47.182;27.506;2024-03-06T02:21:21;100538.94;;;1.62;90.42
85641;BME280;76065;47.182;27.506;2024-03-06T02:23:47;100537.22;;;1.56;90.83
85641;BME280;76065;47.182;27.506;2024-03-06T02:26:13;100539.88;;;1.56;90.30
85641;BME280;76065;47.182;27.506;2024-03-06T02:28:38;100551.75;;;1.65;90.79
85641;BME280;76065;47.182;27.506;2024-03-06T02:31:04;100539.09;;;1.67;90.08
85641;BME280;76065;47.182;27.506;2024-03-06T02:33:32;100532.00;;;1.61;90.24
85641;BME280;76065;47.182;27.506;2024-03-06T02:35:59;100551.00;;;1.76;90.64
85641;BME280;76065;47.182;27.506;2024-03-06T02:38:25;100533.09;;;1.72;89.83
85641;BME280;76065;47.182;27.506;2024-03-06T02:40:50;100535.97;;;1.70;89.75
85641;BME280;76065;47.182;27.506;2024-03-06T02:43:16;100534.59;;;1.68;90.05
85641;BME280;76065;47.182;27.506;2024-03-06T02:45:42;100531.94;;;1.68;89.83
85641;BME280;76065;47.182;27.506;2024-03-06T02:48:07;100528.94;;;1.64;90.64
85641;BME280;76065;47.182;27.506;2024-03-06T02:50:33;100548.72;;;1.80;90.17
85641;BME280;76065;47.182;27.506;2024-03-06T02:52:58;100544.44;;;1.79;89.91
85641;BME280;76065;47.182;27.506;2024-03-06T02:55:24;100545.56;;;1.71;90.18
85641;BME280;76065;47.182;27.506;2024-03-06T02:57:50;100544.97;;;1.69;90.21
85641;BME280;76065;47.182;27.506;2024-03-06T03:00:16;100542.91;;;1.71;89.94
85641;BME280;76065;47.182;27.506;2024-03-06T03:02:42;100564.06;;;1.89;90.16
85641;BME280;76065;47.182;27.506;2024-03-06T03:05:08;100551.50;;;1.97;89.04
85641;BME280;76065;47.182;27.506;2024-03-06T03:07:34;100551.59;;;1.90;89.64
85641;BME280;76065;47.182;27.506;2024-03-06T03:09:59;100542.94;;;1.83;89.59
85641;BME280;76065;47.182;27.506;2024-03-06T03:12:25;100551.28;;;1.98;89.23
85641;BME280;76065;47.182;27.506;2024-03-06T03:14:50;100554.63;;;1.94;89.32
85641;BME280;76065;47.182;27.506;2024-03-06T03:17:18;100548.94;;;1.90;89.71
85641;BME280;76065;47.182;27.506;2024-03-06T03:19:45;100554.63;;;1.94;89.58
85641;BME280;76065;47.182;27.506;2024-03-06T03:22:10;100541.59;;;1.92;89.22
85641;BME280;76065;47.182;27.506;2024-03-06T03:24:36;100463.97;;;1.37;89.39
85641;BME280;76065;47.182;27.506;2024-03-06T03:27:04;100540.97;;;1.90;89.50
85641;BME280;76065;47.182;27.506;2024-03-06T03:29:30;100548.28;;;1.95;89.50
85641;BME280;76065;47.182;27.506;2024-03-06T03:31:56;100540.50;;;1.81;89.65
85641;BME280;76065;47.182;27.506;2024-03-06T03:34:22;100554.97;;;1.97;89.09
85641;BME280;76065;47.182;27.506;2024-03-06T03:36:48;100548.28;;;1.95;89.08
85641;BME280;76065;47.182;27.506;2024-03-06T03:39:14;100538.91;;;1.80;89.94
85641;BME280;76065;47.182;27.506;2024-03-06T03:41:43;100557.88;;;1.96;89.74
85641;BME280;76065;47.182;27.506;2024-03-06T03:44:10;100555.91;;;2.03;89.22
85641;BME280;76065;47.182;27.506;2024-03-06T03:46:36;100560.63;;;2.01;89.54
85641;BME280;76065;47.182;27.506;2024-03-06T03:49:01;100566.41;;;1.98;89.29
85641;BME280;76065;47.182;27.506;2024-03-06T03:51:27;100562.47;;;1.88;89.75
85641;BME280;76065;47.182;27.506;2024-03-06T03:53:52;100563.25;;;1.89;90.18
85641;BME280;76065;47.182;27.506;2024-03-06T03:56:18;100569.03;;;1.86;90.12
85641;BME280;76065;47.182;27.506;2024-03-06T03:58:43;100566.03;;;1.82;90.30
85641;BME280;76065;47.182;27.506;2024-03-06T04:01:11;100575.41;;;1.97;90.13
85641;BME280;76065;47.182;27.506;2024-03-06T04:03:36;100578.66;;;1.99;89.57
85641;BME280;76065;47.182;27.506;2024-03-06T04:06:02;100579.34;;;2.06;89.60
85641;BME280;76065;47.182;27.506;2024-03-06T04:08:27;100568.59;;;2.01;89.52
85641;BME280;76065;47.182;27.506;2024-03-06T04:10:53;100566.66;;;1.96;89.35
85641;BME280;76065;47.182;27.506;2024-03-06T04:13:19;100574.38;;;2.09;89.14
85641;BME280;76065;47.182;27.506;2024-03-06T04:15:45;100582.34;;;2.09;88.50
85641;BME280;76065;47.182;27.506;2024-03-06T04:18:11;100580.16;;;2.06;89.42
85641;BME280;76065;47.182;27.506;2024-03-06T04:20:37;100589.97;;;2.06;89.54
85641;BME280;76065;47.182;27.506;2024-03-06T04:23:02;100581.44;;;2.04;89.74
85641;BME280;76065;47.182;27.506;2024-03-06T04:25:28;100591.50;;;2.13;89.45
85641;BME280;76065;47.182;27.506;2024-03-06T04:27:54;100581.31;;;2.10;88.93
85641;BME280;76065;47.182;27.506;2024-03-06T04:30:20;100589.16;;;2.05;89.35
85641;BME280;76065;47.182;27.506;2024-03-06T04:32:46;100594.25;;;2.07;90.08
85641;BME280;76065;47.182;27.506;2024-03-06T04:35:12;100605.34;;;2.04;90.32
85641;BME280;76065;47.182;27.506;2024-03-06T04:37:37;100589.06;;;2.00;90.14
85641;BME280;76065;47.182;27.506;2024-03-06T04:40:03;100603.84;;;2.08;90.17
85641;BME280;76065;47.182;27.506;2024-03-06T04:42:36;100586.84;;;2.09;89.48
85641;BME280;76065;47.182;27.506;2024-03-06T04:45:12;100597.06;;;2.12;89.33
85641;BME280;76065;47.182;27.506;2024-03-06T04:47:38;100594.28;;;2.18;88.64
85641;BME280;76065;47.182;27.506;2024-03-06T04:50:03;100605.84;;;2.24;88.04
85641;BME280;76065;47.182;27.506;2024-03-06T04:52:35;100601.78;;;2.10;88.52
85641;BME280;76065;47.182;27.506;2024-03-06T04:55:00;100596.69;;;2.08;89.01
85641;BME280;76065;47.182;27.506;2024-03-06T04:57:26;100600.59;;;2.06;89.16
85641;BME280;76065;47.182;27.506;2024-03-06T04:59:53;100603.72;;;2.03;90.05
85641;BME280;76065;47.182;27.506;2024-03-06T05:02:18;100612.75;;;2.13;89.76
85641;BME280;76065;47.182;27.506;2024-03-06T05:04:44;100630.41;;;2.08;89.92
85641;BME280;76065;47.182;27.506;2024-03-06T05:07:09;100602.44;;;2.05;89.78
85641;BME280;76065;47.182;27.506;2024-03-06T05:09:35;100619.00;;;2.19;89.73
85641;BME280;76065;47.182;27.506;2024-03-06T05:12:01;100607.31;;;2.08;88.87
85641;BME280;76065;47.182;27.506;2024-03-06T05:14:26;100611.59;;;2.21;89.09
85641;BME280;76065;47.182;27.506;2024-03-06T05:16:52;100619.72;;;2.26;89.28
85641;BME280;76065;47.182;27.506;2024-03-06T05:19:18;100623.19;;;2.26;88.58
85641;BME280;76065;47.182;27.506;2024-03-06T05:21:45;100612.53;;;2.26;87.79
85641;BME280;76065;47.182;27.506;2024-03-06T05:24:10;100605.50;;;2.20;88.56
85641;BME280;76065;47.182;27.506;2024-03-06T05:26:36;100612.19;;;2.23;88.61
85641;BME280;76065;47.182;27.506;2024-03-06T05:29:02;100629.66;;;2.30;88.66
85641;BME280;76065;47.182;27.506;2024-03-06T05:31:28;100631.84;;;2.33;88.55
85641;BME280;76065;47.182;27.506;2024-03-06T05:33:54;100628.03;;;2.29;89.13
85641;BME280;76065;47.182;27.506;2024-03-06T05:36:19;100619.81;;;2.19;88.93
85641;BME280;76065;47.182;27.506;2024-03-06T05:38:45;100637.84;;;2.29;88.83
85641;BME280;76065;47.182;27.506;2024-03-06T05:41:11;100639.47;;;2.30;88.69
85641;BME280;76065;47.182;27.506;2024-03-06T05:43:36;100643.53;;;2.32;88.94
85641;BME280;76065;47.182;27.506;2024-03-06T05:46:02;100622.81;;;2.23;89.91
85641;BME280;76065;47.182;27.506;2024-03-06T05:48:28;100631.97;;;2.39;90.36
85641;BME280;76065;47.182;27.506;2024-03-06T05:50:53;100638.47;;;2.54;89.19
85641;BME280;76065;47.182;27.506;2024-03-06T05:53:19;100629.13;;;2.63;89.37
85641;BME280;76065;47.182;27.506;2024-03-06T05:55:45;100647.19;;;2.85;87.77
85641;BME280;76065;47.182;27.506;2024-03-06T05:58:11;100643.34;;;2.92;87.18
85641;BME280;76065;47.182;27.506;2024-03-06T06:00:36;100634.66;;;3.08;87.25
85641;BME280;76065;47.182;27.506;2024-03-06T06:03:03;100640.53;;;3.22;86.58
85641;BME280;76065;47.182;27.506;2024-03-06T06:05:28;100645.84;;;3.34;85.46
85641;BME280;76065;47.182;27.506;2024-03-06T06:07:54;100645.38;;;3.25;85.30
85641;BME280;76065;47.182;27.506;2024-03-06T06:10:20;100645.97;;;3.27;85.65
85641;BME280;76065;47.182;27.506;2024-03-06T06:12:45;100650.00;;;3.29;85.50
85641;BME280;76065;47.182;27.506;2024-03-06T06:15:11;100639.03;;;3.26;85.14
85641;BME280;76065;47.182;27.506;2024-03-06T06:17:36;100641.91;;;3.36;85.25
85641;BME280;76065;47.182;27.506;2024-03-06T06:20:06;100648.25;;;3.47;84.56
85641;BME280;76065;47.182;27.506;2024-03-06T06:22:36;100646.94;;;3.49;84.86
85641;BME280;76065;47.182;27.506;2024-03-06T06:25:01;100654.94;;;3.49;84.01
85641;BME280;76065;47.182;27.506;2024-03-06T06:27:28;100648.22;;;3.58;83.69
85641;BME280;76065;47.182;27.506;2024-03-06T06:29:54;100653.78;;;3.57;83.77
85641;BME280;76065;47.182;27.506;2024-03-06T06:32:21;100658.22;;;3.40;83.85
85641;BME280;76065;47.182;27.506;2024-03-06T06:34:46;100663.59;;;3.16;85.12
85641;BME280;76065;47.182;27.506;2024-03-06T06:37:12;100674.66;;;3.37;85.25
85641;BME280;76065;47.182;27.506;2024-03-06T06:39:37;100668.63;;;3.41;84.99
85641;BME280;76065;47.182;27.506;2024-03-06T06:42:03;100666.53;;;3.43;85.04
85641;BME280;76065;47.182;27.506;2024-03-06T06:44:29;100668.94;;;3.56;84.47
85641;BME280;76065;47.182;27.506;2024-03-06T06:46:55;100670.44;;;3.64;83.97
85641;BME280;76065;47.182;27.506;2024-03-06T06:49:21;100671.72;;;3.90;83.42
85641;BME280;76065;47.182;27.506;2024-03-06T06:51:47;100692.53;;;4.04;82.42
85641;BME280;76065;47.182;27.506;2024-03-06T06:54:15;100670.91;;;3.89;82.40
85641;BME280;76065;47.182;27.506;2024-03-06T06:56:40;100677.59;;;4.03;82.45
85641;BME280;76065;47.182;27.506;2024-03-06T06:59:06;100666.13;;;4.03;82.11
85641;BME280;76065;47.182;27.506;2024-03-06T07:01:31;100669.38;;;4.21;80.98
85641;BME280;76065;47.182;27.506;2024-03-06T07:03:58;100679.75;;;4.35;81.22
85641;BME280;76065;47.182;27.506;2024-03-06T07:06:24;100674.00;;;4.26;80.87
85641;BME280;76065;47.182;27.506;2024-03-06T07:08:50;100667.63;;;4.27;80.39
85641;BME280;76065;47.182;27.506;2024-03-06T07:11:17;100680.16;;;4.43;81.26
85641;BME280;76065;47.182;27.506;2024-03-06T07:13:43;100680.81;;;4.50;80.04
85641;BME280;76065;47.182;27.506;2024-03-06T07:16:09;100676.53;;;4.66;79.30
85641;BME280;76065;47.182;27.506;2024-03-06T07:18:35;100693.28;;;4.78;80.05
85641;BME280;76065;47.182;27.506;2024-03-06T07:21:00;100671.78;;;4.51;80.27
85641;BME280;76065;47.182;27.506;2024-03-06T07:23:26;100684.28;;;4.51;81.04
85641;BME280;76065;47.182;27.506;2024-03-06T07:25:51;100692.81;;;4.64;79.22
85641;BME280;76065;47.182;27.506;2024-03-06T07:28:17;100689.16;;;4.70;79.55
85641;BME280;76065;47.182;27.506;2024-03-06T07:30:44;100685.75;;;4.75;78.92
85641;BME280;76065;47.182;27.506;2024-03-06T07:33:09;100699.34;;;4.90;79.16
85641;BME280;76065;47.182;27.506;2024-03-06T07:35:35;100690.16;;;4.81;79.01
85641;BME280;76065;47.182;27.506;2024-03-06T07:38:03;100691.81;;;4.87;78.52
85641;BME280;76065;47.182;27.506;2024-03-06T07:40:30;100687.59;;;5.08;77.96
85641;BME280;76065;47.182;27.506;2024-03-06T07:42:57;100704.78;;;5.34;76.88
85641;BME280;76065;47.182;27.506;2024-03-06T07:45:23;100703.31;;;5.43;76.85
85641;BME280;76065;47.182;27.506;2024-03-06T07:47:48;100697.81;;;5.49;76.37
85641;BME280;76065;47.182;27.506;2024-03-06T07:50:14;100700.28;;;5.78;75.92
85641;BME280;76065;47.182;27.506;2024-03-06T07:52:47;100695.00;;;6.90;72.41
85641;BME280;76065;47.182;27.506;2024-03-06T07:55:13;100692.56;;;7.30;69.46
85641;BME280;76065;47.182;27.506;2024-03-06T07:57:39;100697.88;;;7.72;68.17
85641;BME280;76065;47.182;27.506;2024-03-06T08:00:06;100690.56;;;7.11;70.15
85641;BME280;76065;47.182;27.506;2024-03-06T08:02:40;100687.47;;;6.87;70.62
85641;BME280;76065;47.182;27.506;2024-03-06T08:05:10;100687.69;;;6.80;70.90
85641;BME280;76065;47.182;27.506;2024-03-06T08:07:38;100691.38;;;6.42;71.95
85641;BME280;76065;47.182;27.506;2024-03-06T08:10:10;100694.78;;;6.33;73.04
85641;BME280;76065;47.182;27.506;2024-03-06T08:12:43;100690.59;;;6.42;71.98
85641;BME280;76065;47.182;27.506;2024-03-06T08:15:13;100682.88;;;6.50;71.61
85641;BME280;76065;47.182;27.506;2024-03-06T08:17:43;100711.78;;;6.48;71.34
85641;BME280;76065;47.182;27.506;2024-03-06T08:20:09;100712.69;;;6.32;72.20
85641;BME280;76065;47.182;27.506;2024-03-06T08:22:37;100702.28;;;6.36;72.48
85641;BME280;76065;47.182;27.506;2024-03-06T08:25:06;100708.22;;;6.43;71.02
85641;BME280;76065;47.182;27.506;2024-03-06T08:27:33;100706.09;;;6.18;72.47
85641;BME280;76065;47.182;27.506;2024-03-06T08:29:59;100713.34;;;6.18;72.71
85641;BME280;76065;47.182;27.506;2024-03-06T08:32:25;100688.63;;;6.05;73.30
85641;BME280;76065;47.182;27.506;2024-03-06T08:34:50;100708.69;;;6.08;73.30
85641;BME280;76065;47.182;27.506;2024-03-06T08:37:16;100709.44;;;6.03;73.66
85641;BME280;76065;47.182;27.506;2024-03-06T08:39:41;100712.19;;;6.35;73.52
85641;BME280;76065;47.182;27.506;2024-03-06T08:42:07;100705.09;;;6.51;72.21
85641;BME280;76065;47.182;27.506;2024-03-06T08:44:33;100710.78;;;6.91;71.41
85641;BME280;76065;47.182;27.506;2024-03-06T08:46:59;100718.47;;;6.78;70.22
85641;BME280;76065;47.182;27.506;2024-03-06T08:49:24;100706.72;;;6.84;71.75
85641;BME280;76065;47.182;27.506;2024-03-06T08:51:50;100711.19;;;7.05;70.13
85641;BME280;76065;47.182;27.506;2024-03-06T08:54:15;100680.97;;;7.15;68.72
85641;BME280;76065;47.182;27.506;2024-03-06T08:56:43;100705.47;;;7.38;67.59
85641;BME280;76065;47.182;27.506;2024-03-06T08:59:09;100708.81;;;7.14;69.03
85641;BME280;76065;47.182;27.506;2024-03-06T09:01:35;100697.00;;;7.57;67.25
85641;BME280;76065;47.182;27.506;2024-03-06T09:04:00;100701.75;;;8.07;65.58
85641;BME280;76065;47.182;27.506;2024-03-06T09:06:26;100699.97;;;8.48;64.37
85641;BME280;76065;47.182;27.506;2024-03-06T09:08:52;100698.38;;;8.92;63.13
85641;BME280;76065;47.182;27.506;2024-03-06T09:11:18;100707.44;;;9.47;60.63
85641;BME280;76065;47.182;27.506;2024-03-06T09:13:43;100708.13;;;9.82;58.99
85641;BME280;76065;47.182;27.506;2024-03-06T09:16:09;100696.50;;;9.92;58.46
85641;BME280;76065;47.182;27.506;2024-03-06T09:18:34;100705.25;;;9.59;59.75
85641;BME280;76065;47.182;27.506;2024-03-06T09:21:00;100717.41;;;10.15;58.67
85641;BME280;76065;47.182;27.506;2024-03-06T09:23:25;100712.06;;;10.05;57.58
85641;BME280;76065;47.182;27.506;2024-03-06T09:25:51;100700.47;;;11.16;56.93
85641;BME280;76065;47.182;27.506;2024-03-06T09:28:17;100706.00;;;11.30;53.37
85641;BME280;76065;47.182;27.506;2024-03-06T09:30:42;100707.53;;;11.12;54.60
85641;BME280;76065;47.182;27.506;2024-03-06T09:33:08;100701.16;;;11.80;51.96
85641;BME280;76065;47.182;27.506;2024-03-06T09:35:33;100700.41;;;12.16;51.43
85641;BME280;76065;47.182;27.506;2024-03-06T09:37:59;100698.81;;;13.18;49.75
85641;BME280;76065;47.182;27.506;2024-03-06T09:40:26;100694.72;;;12.55;47.95
85641;BME280;76065;47.182;27.506;2024-03-06T09:42:52;100689.44;;;12.96;46.72
85641;BME280;76065;47.182;27.506;2024-03-06T09:45:18;100681.19;;;13.20;46.07
85641;BME280;76065;47.182;27.506;2024-03-06T09:47:49;100691.47;;;14.14;43.85
85641;BME280;76065;47.182;27.506;2024-03-06T09:50:16;100700.41;;;14.28;42.63
85641;BME280;76065;47.182;27.506;2024-03-06T09:52:51;100689.31;;;14.02;44.05
85641;BME280;76065;47.182;27.506;2024-03-06T09:55:18;100686.16;;;14.22;43.60
85641;BME280;76065;47.182;27.506;2024-03-06T09:57:43;100689.13;;;13.57;44.39
85641;BME280;76065;47.182;27.506;2024-03-06T10:00:09;100685.03;;;14.23;42.53
85641;BME280;76065;47.182;27.506;2024-03-06T10:02:52;100690.31;;;14.42;42.05
85641;BME280;76065;47.182;27.506;2024-03-06T10:05:21;100689.94;;;15.02;40.80
85641;BME280;76065;47.182;27.506;2024-03-06T10:07:47;100671.97;;;15.84;38.59
85641;BME280;76065;47.182;27.506;2024-03-06T10:10:14;100664.94;;;15.44;38.34
85641;BME280;76065;47.182;27.506;2024-03-06T10:12:41;100679.00;;;14.26;41.11
85641;BME280;76065;47.182;27.506;2024-03-06T10:15:08;100671.06;;;13.94;42.54
85641;BME280;76065;47.182;27.506;2024-03-06T10:17:37;100674.59;;;14.17;42.12
85641;BME280;76065;47.182;27.506;2024-03-06T10:20:23;100671.97;;;13.89;41.77
85641;BME280;76065;47.182;27.506;2024-03-06T10:22:50;100672.06;;;14.34;40.23
85641;BME280;76065;47.182;27.506;2024-03-06T10:25:23;100662.28;;;14.91;39.77
85641;BME280;76065;47.182;27.506;2024-03-06T10:28:11;100668.16;;;14.62;40.32
85641;BME280;76065;47.182;27.506;2024-03-06T10:30:39;100664.94;;;14.82;40.59
85641;BME280;76065;47.182;27.506;2024-03-06T10:33:08;100650.03;;;15.33;40.72
85641;BME280;76065;47.182;27.506;2024-03-06T10:35:35;100660.16;;;16.15;35.98
85641;BME280;76065;47.182;27.506;2024-03-06T10:38:03;100651.03;;;16.45;38.69
85641;BME280;76065;47.182;27.506;2024-03-06T10:40:34;100646.09;;;16.73;35.64
85641;BME280;76065;47.182;27.506;2024-03-06T10:43:00;100648.28;;;16.97;35.48
85641;BME280;76065;47.182;27.506;2024-03-06T10:45:40;100652.03;;;16.32;35.03
85641;BME280;76065;47.182;27.506;2024-03-06T10:48:09;100644.50;;;16.20;35.81
85641;BME280;76065;47.182;27.506;2024-03-06T10:50:41;100622.56;;;16.43;34.46
85641;BME280;76065;47.182;27.506;2024-03-06T10:53:17;100628.31;;;16.41;37.00
85641;BME280;76065;47.182;27.506;2024-03-06T10:55:44;100625.34;;;17.06;32.99
85641;BME280;76065;47.182;27.506;2024-03-06T10:58:11;100632.63;;;16.51;34.07
85641;BME280;76065;47.182;27.506;2024-03-06T11:00:41;100625.56;;;15.64;35.74
85641;BME280;76065;47.182;27.506;2024-03-06T11:03:09;100624.66;;;16.37;34.48
85641;BME280;76065;47.182;27.506;2024-03-06T11:05:41;100608.84;;;15.31;39.42
85641;BME280;76065;47.182;27.506;2024-03-06T11:08:12;100615.38;;;15.30;37.28
85641;BME280;76065;47.182;27.506;2024-03-06T11:10:41;100613.13;;;14.84;37.27
85641;BME280;76065;47.182;27.506;2024-03-06T11:13:22;100620.84;;;14.46;37.97
85641;BME280;76065;47.182;27.506;2024-03-06T11:15:53;100621.72;;;14.55;37.63
85641;BME280;76065;47.182;27.506;2024-03-06T11:23:28;100603.09;;;12.86;40.60
85641;BME280;76065;47.182;27.506;2024-03-06T11:28:21;100617.94;;;13.02;38.73
85641;BME280;76065;47.182;27.506;2024-03-06T11:30:58;100615.00;;;12.20;41.93
85641;BME280;76065;47.182;27.506;2024-03-06T11:33:33;100606.66;;;12.03;40.41
85641;BME280;76065;47.182;27.506;2024-03-06T11:36:20;100616.78;;;11.74;45.20
85641;BME280;76065;47.182;27.506;2024-03-06T11:41:13;100596.16;;;11.59;44.00
85641;BME280;76065;47.182;27.506;2024-03-06T11:43:43;100598.75;;;11.88;41.51
85641;BME280;76065;47.182;27.506;2024-03-06T11:46:09;100603.84;;;12.27;41.20
85641;BME280;76065;47.182;27.506;2024-03-06T11:48:36;100606.97;;;12.34;40.24
85641;BME280;76065;47.182;27.506;2024-03-06T11:51:02;100602.44;;;12.30;40.18
85641;BME280;76065;47.182;27.506;2024-03-06T11:53:33;100604.22;;;12.20;40.61
85641;BME280;76065;47.182;27.506;2024-03-06T11:56:07;100602.75;;;12.09;40.36
85641;BME280;76065;47.182;27.506;2024-03-06T11:58:33;100599.78;;;11.92;40.21
85641;BME280;76065;47.182;27.506;2024-03-06T12:00:59;100592.03;;;12.04;40.30
85641;BME280;76065;47.182;27.506;2024-03-06T12:03:27;100589.47;;;12.78;39.74
85641;BME280;76065;47.182;27.506;2024-03-06T12:05:53;100578.91;;;13.85;36.19
85641;BME280;76065;47.182;27.506;2024-03-06T12:08:18;100593.13;;;14.49;34.86
85641;BME280;76065;47.182;27.506;2024-03-06T12:10:45;100597.56;;;15.07;32.94
85641;BME280;76065;47.182;27.506;2024-03-06T12:13:11;100588.91;;;14.65;34.33
85641;BME280;76065;47.182;27.506;2024-03-06T12:15:37;100590.38;;;15.02;33.45
85641;BME280;76065;47.182;27.506;2024-03-06T12:18:03;100587.94;;;15.31;32.42
85641;BME280;76065;47.182;27.506;2024-03-06T12:20:28;100593.13;;;14.49;33.78
85641;BME280;76065;47.182;27.506;2024-03-06T12:22:57;100594.16;;;13.81;35.21
85641;BME280;76065;47.182;27.506;2024-03-06T12:25:25;100592.44;;;13.36;37.13
85641;BME280;76065;47.182;27.506;2024-03-06T12:27:53;100586.72;;;13.51;36.53
85641;BME280;76065;47.182;27.506;2024-03-06T12:30:22;100593.88;;;13.69;37.67
85641;BME280;76065;47.182;27.506;2024-03-06T12:33:01;100589.75;;;13.36;38.29
85641;BME280;76065;47.182;27.506;2024-03-06T12:35:31;100594.25;;;13.76;35.79
85641;BME280;76065;47.182;27.506;2024-03-06T12:37:57;100585.63;;;13.88;36.25
85641;BME280;76065;47.182;27.506;2024-03-06T12:40:23;100580.81;;;14.74;35.92
85641;BME280;76065;47.182;27.506;2024-03-06T12:42:49;100575.97;;;15.41;37.01
85641;BME280;76065;47.182;27.506;2024-03-06T12:45:17;100582.44;;;14.75;35.38
85641;BME280;76065;47.182;27.506;2024-03-06T12:47:44;100582.09;;;14.45;35.33
85641;BME280;76065;47.182;27.506;2024-03-06T12:50:11;100590.28;;;13.74;36.42
85641;BME280;76065;47.182;27.506;2024-03-06T12:52:40;100584.34;;;13.36;36.91
85641;BME280;76065;47.182;27.506;2024-03-06T12:55:07;100575.69;;;13.20;38.38
85641;BME280;76065;47.182;27.506;2024-03-06T12:57:33;100572.13;;;12.51;39.78